createdAt,value
2022-09-22T00:01:43.370Z,1.40
2022-09-22T00:04:13.075Z,0.80
2022-09-22T00:06:43.481Z,1.00
2022-09-22T00:09:12.912Z,1.07
2022-09-22T00:11:42.543Z,0.70
2022-09-22T00:14:13.609Z,0.77
2022-09-22T00:16:42.757Z,0.60
2022-09-22T00:19:11.975Z,0.90
2022-09-22T00:21:40.577Z,0.70
2022-09-22T00:24:09.452Z,0.80
2022-09-22T00:26:38.257Z,0.80
2022-09-22T00:29:09.902Z,0.83
2022-09-22T00:31:40.747Z,0.80
2022-09-22T00:34:09.842Z,0.70
2022-09-22T00:36:38.401Z,1.40
2022-09-22T00:39:07.223Z,1.20
2022-09-22T00:41:37.371Z,0.80
2022-09-22T00:44:31.294Z,1.30
2022-09-22T00:47:02.965Z,0.60
2022-09-22T00:49:35.494Z,0.77
2022-09-22T00:52:04.113Z,0.60
2022-09-22T00:54:33.462Z,1.00
2022-09-22T00:57:06.426Z,0.83
2022-09-22T00:59:35.612Z,1.00
2022-09-22T01:02:05.539Z,0.90
2022-09-22T01:04:34.203Z,2.33
2022-09-22T01:07:03.576Z,0.80
2022-09-22T01:09:34.051Z,0.90
2022-09-22T01:12:02.838Z,1.10
2022-09-22T01:14:35.025Z,3.17
2022-09-22T01:17:08.445Z,0.80
2022-09-22T01:19:47.134Z,0.93
2022-09-22T01:22:23.011Z,0.97
2022-09-22T01:24:57.297Z,0.90
2022-09-22T01:27:46.886Z,1.50
2022-09-22T01:30:24.190Z,0.83
2022-09-22T01:32:57.569Z,0.87
2022-09-22T01:35:28.249Z,1.00
2022-09-22T01:38:00.517Z,1.20
2022-09-22T01:40:33.559Z,1.13
2022-09-22T01:43:05.494Z,1.20
2022-09-22T01:45:35.509Z,0.87
2022-09-22T01:48:06.813Z,1.07
2022-09-22T01:50:36.528Z,1.47
2022-09-22T01:53:07.600Z,1.30
2022-09-22T01:55:38.657Z,1.90
2022-09-22T01:58:08.884Z,0.70
2022-09-22T02:00:41.094Z,1.10
2022-09-22T02:03:12.465Z,1.00
2022-09-22T02:05:44.071Z,1.30
2022-09-22T02:08:15.318Z,1.23
2022-09-22T02:10:45.478Z,0.77
2022-09-22T02:13:14.067Z,1.90
2022-09-22T02:16:03.043Z,2.30
2022-09-22T02:18:33.739Z,1.50
2022-09-22T02:21:02.876Z,1.30
2022-09-22T02:23:32.772Z,0.90
2022-09-22T02:26:01.972Z,0.80
2022-09-22T02:28:31.396Z,0.80
2022-09-22T02:31:19.443Z,0.90
2022-09-22T02:33:49.309Z,0.87
2022-09-22T02:36:40.262Z,0.70
2022-09-22T02:39:11.048Z,0.80
2022-09-22T02:41:43.246Z,0.80
2022-09-22T02:44:15.809Z,0.70
2022-09-22T02:46:48.822Z,0.90
2022-09-22T02:49:19.101Z,0.70
2022-09-22T02:51:50.045Z,0.80
2022-09-22T02:54:18.898Z,0.70
2022-09-22T02:56:47.450Z,0.70
2022-09-22T02:59:16.038Z,0.90
2022-09-22T03:01:46.014Z,0.80
2022-09-22T03:04:14.495Z,1.00
2022-09-22T03:06:43.030Z,0.80
2022-09-22T03:09:11.559Z,1.00
2022-09-22T03:11:40.256Z,0.70
2022-09-22T03:14:08.824Z,0.70
2022-09-22T03:16:37.519Z,0.80
2022-09-22T03:19:07.320Z,0.90
2022-09-22T03:21:35.884Z,0.93
2022-09-22T03:24:04.805Z,0.90
2022-09-22T03:26:33.321Z,1.00
2022-09-22T03:29:01.851Z,1.10
2022-09-22T03:31:30.466Z,0.87
2022-09-22T03:33:58.890Z,1.10
2022-09-22T03:36:28.862Z,1.30
2022-09-22T03:38:57.550Z,1.30
2022-09-22T03:41:26.039Z,0.97
2022-09-22T03:43:54.808Z,1.77
2022-09-22T03:46:23.455Z,1.60
2022-09-22T03:48:51.918Z,1.53
2022-09-22T03:51:20.649Z,1.60
2022-09-22T03:53:50.654Z,1.30
2022-09-22T03:56:19.369Z,1.13
2022-09-22T03:58:48.154Z,1.70
2022-09-22T04:01:16.697Z,1.10
2022-09-22T04:03:46.604Z,1.30
2022-09-22T04:06:15.485Z,1.23
2022-09-22T04:08:44.074Z,1.00
2022-09-22T04:11:16.198Z,1.20
2022-09-22T04:13:46.545Z,1.70
2022-09-22T04:16:15.330Z,3.93
2022-09-22T04:18:43.891Z,1.40
2022-09-22T04:21:12.798Z,1.10
2022-09-22T04:23:41.302Z,1.30
2022-09-22T04:26:09.760Z,1.00
2022-09-22T04:28:39.805Z,1.00
2022-09-22T04:31:08.614Z,1.60
2022-09-22T04:33:37.496Z,1.30
2022-09-22T04:36:06.278Z,1.20
2022-09-22T04:38:34.845Z,1.03
2022-09-22T04:41:03.260Z,1.10
2022-09-22T04:43:31.785Z,1.90
2022-09-22T04:46:01.850Z,1.13
2022-09-22T04:48:30.326Z,1.10
2022-09-22T04:50:58.874Z,1.10
2022-09-22T04:53:27.477Z,1.20
2022-09-22T04:55:56.608Z,1.20
2022-09-22T04:58:25.182Z,1.00
2022-09-22T05:00:55.764Z,1.00
2022-09-22T05:03:25.689Z,0.93
2022-09-22T05:05:55.641Z,1.03
2022-09-22T05:08:24.262Z,1.30
2022-09-22T05:10:53.997Z,1.10
2022-09-22T05:13:22.537Z,1.40
2022-09-22T05:15:51.044Z,1.33
2022-09-22T05:18:19.474Z,1.30
2022-09-22T05:20:49.482Z,1.40
2022-09-22T05:23:17.976Z,1.27
2022-09-22T05:25:46.426Z,1.47
2022-09-22T05:28:14.966Z,1.37
2022-09-22T05:30:43.522Z,1.50
2022-09-22T05:33:12.005Z,1.10
2022-09-22T05:35:40.546Z,0.90
2022-09-22T05:38:10.541Z,1.10
2022-09-22T05:40:39.062Z,1.23
2022-09-22T05:43:07.580Z,1.30
2022-09-22T05:45:36.215Z,1.20
2022-09-22T05:48:04.689Z,0.90
2022-09-22T05:50:33.298Z,0.90
2022-09-22T05:53:05.965Z,1.13
2022-09-22T05:55:36.529Z,1.10
2022-09-22T05:58:05.190Z,1.10
2022-09-22T06:00:34.014Z,1.10
2022-09-22T06:03:02.633Z,1.30
2022-09-22T06:05:31.225Z,1.17
2022-09-22T06:08:02.896Z,1.13
2022-09-22T06:10:32.149Z,1.20
2022-09-22T06:13:02.044Z,1.20
2022-09-22T06:15:31.250Z,1.30
2022-09-22T06:17:59.941Z,1.40
2022-09-22T06:20:29.196Z,1.40
2022-09-22T06:22:57.631Z,1.10
2022-09-22T06:25:28.300Z,1.10
2022-09-22T06:28:05.877Z,1.50
2022-09-22T06:30:34.604Z,1.20
2022-09-22T06:33:03.225Z,1.53
2022-09-22T06:35:37.805Z,1.00
2022-09-22T06:38:07.330Z,1.10
2022-09-22T06:40:36.629Z,1.40
2022-09-22T06:43:13.023Z,1.50
2022-09-22T06:45:42.642Z,1.30
2022-09-22T06:48:12.249Z,1.33
2022-09-22T06:50:41.375Z,1.17
2022-09-22T06:53:12.462Z,1.50
2022-09-22T06:55:41.728Z,1.60
2022-09-22T06:58:11.914Z,1.20
2022-09-22T07:00:42.017Z,2.07
2022-09-22T07:03:14.936Z,1.63
2022-09-22T07:05:43.852Z,2.10
2022-09-22T07:08:12.470Z,1.60
2022-09-22T07:10:41.026Z,1.40
2022-09-22T07:13:11.407Z,1.40
2022-09-22T07:15:39.894Z,1.73
2022-09-22T07:18:08.689Z,1.80
2022-09-22T07:20:37.138Z,1.87
2022-09-22T07:23:11.217Z,2.20
2022-09-22T07:25:39.652Z,2.00
2022-09-22T07:28:13.164Z,1.60
2022-09-22T07:30:42.970Z,1.60
2022-09-22T07:33:11.549Z,1.40
2022-09-22T07:35:40.087Z,1.70
2022-09-22T07:38:08.614Z,1.67
2022-09-22T07:40:37.307Z,1.30
2022-09-22T07:43:05.906Z,1.40
2022-09-22T07:45:34.451Z,1.60
2022-09-22T07:48:26.680Z,1.40
2022-09-22T07:51:00.257Z,1.40
2022-09-22T07:53:28.883Z,1.10
2022-09-22T07:55:57.368Z,0.97
2022-09-22T07:58:26.006Z,1.00
2022-09-22T08:00:54.891Z,1.00
2022-09-22T08:03:25.695Z,1.30
2022-09-22T08:06:06.088Z,1.20
2022-09-22T08:08:34.787Z,1.23
2022-09-22T08:11:07.386Z,1.13
2022-09-22T08:13:36.883Z,1.10
2022-09-22T08:16:05.871Z,1.20
2022-09-22T08:18:36.486Z,1.20
2022-09-22T08:21:04.937Z,1.20
2022-09-22T08:23:33.434Z,1.27
2022-09-22T08:26:05.701Z,1.13
2022-09-22T08:28:34.155Z,1.27
2022-09-22T08:31:03.244Z,0.93
2022-09-22T08:33:32.480Z,1.30
2022-09-22T08:36:03.790Z,1.30
2022-09-22T08:38:32.864Z,1.40
2022-09-22T08:41:06.881Z,1.10
2022-09-22T08:43:35.861Z,1.77
2022-09-22T08:46:05.316Z,1.50
2022-09-22T08:48:51.925Z,1.70
2022-09-22T08:51:43.186Z,1.57
2022-09-22T08:54:11.889Z,1.50
2022-09-22T08:56:43.346Z,1.70
2022-09-22T08:59:13.306Z,1.70
2022-09-22T09:01:49.830Z,1.70
2022-09-22T09:04:45.552Z,1.90
2022-09-22T09:07:17.722Z,1.77
2022-09-22T09:09:53.837Z,1.60
2022-09-22T09:12:37.146Z,1.70
2022-09-22T09:15:23.388Z,1.57
2022-09-22T09:17:52.212Z,1.70
2022-09-22T09:20:23.831Z,1.70
2022-09-22T09:22:55.969Z,1.70
2022-09-22T09:25:30.553Z,1.50
2022-09-22T09:28:01.802Z,1.50
2022-09-22T09:30:34.503Z,1.77
2022-09-22T09:33:04.824Z,1.70
2022-09-22T09:35:41.391Z,1.70
2022-09-22T09:38:14.242Z,1.30
2022-09-22T09:40:42.989Z,1.50
2022-09-22T09:43:12.462Z,1.73
2022-09-22T09:45:51.478Z,1.67
2022-09-22T09:48:23.652Z,1.60
2022-09-22T09:50:52.078Z,1.30
2022-09-22T09:53:32.250Z,1.43
2022-09-22T09:56:02.777Z,1.37
2022-09-22T09:58:49.161Z,1.50
2022-09-22T10:01:17.657Z,1.40
2022-09-22T10:03:48.311Z,1.40
2022-09-22T10:06:17.182Z,1.30
2022-09-22T10:08:48.122Z,1.40
2022-09-22T10:11:17.014Z,1.57
2022-09-22T10:13:46.117Z,1.40
2022-09-22T10:16:22.313Z,1.60
2022-09-22T10:18:51.852Z,1.30
2022-09-22T10:21:21.629Z,1.50
2022-09-22T10:23:52.426Z,1.40
2022-09-22T10:26:22.887Z,1.40
2022-09-22T10:29:09.514Z,1.80
2022-09-22T10:31:38.648Z,1.60
2022-09-22T10:34:07.592Z,1.70
2022-09-22T10:36:37.878Z,1.77
2022-09-22T10:39:18.681Z,1.30
2022-09-22T10:41:49.131Z,1.83
2022-09-22T10:44:38.921Z,1.20
2022-09-22T10:47:14.474Z,1.33
2022-09-22T10:49:52.271Z,1.40
2022-09-22T10:52:23.741Z,1.37
2022-09-22T10:55:02.049Z,1.40
2022-09-22T10:57:38.893Z,1.47
2022-09-22T11:00:15.777Z,1.33
2022-09-22T11:03:02.673Z,1.33
2022-09-22T11:05:58.845Z,1.50
2022-09-22T11:08:45.043Z,1.30
2022-09-22T11:11:38.809Z,1.47
2022-09-22T11:14:13.714Z,1.30
2022-09-22T11:16:46.906Z,1.53
2022-09-22T11:19:30.770Z,1.50
2022-09-22T11:22:06.128Z,1.73
2022-09-22T11:24:44.806Z,1.50
2022-09-22T11:27:18.358Z,1.50
2022-09-22T11:30:11.220Z,1.70
2022-09-22T11:32:49.103Z,1.50
2022-09-22T11:35:25.026Z,1.60
2022-09-22T11:38:01.809Z,1.70
2022-09-22T11:40:48.822Z,1.70
2022-09-22T11:43:31.553Z,1.90
2022-09-22T11:46:04.587Z,1.80
2022-09-22T11:48:40.275Z,1.70
2022-09-22T11:51:25.173Z,1.60
2022-09-22T11:54:07.886Z,1.90
2022-09-22T11:56:39.734Z,1.90
2022-09-22T11:59:15.233Z,1.70
2022-09-22T12:01:44.017Z,1.60
2022-09-22T12:04:18.893Z,1.50
2022-09-22T12:06:49.587Z,1.87
2022-09-22T12:09:24.856Z,1.60
2022-09-22T12:11:54.553Z,1.80
2022-09-22T12:14:24.522Z,2.00
2022-09-22T12:16:57.005Z,1.63
2022-09-22T12:19:29.283Z,1.40
2022-09-22T12:21:59.833Z,1.70
2022-09-22T12:24:28.353Z,1.97
2022-09-22T12:26:56.831Z,1.40
2022-09-22T12:29:31.185Z,1.40
2022-09-22T12:32:00.735Z,1.40
2022-09-22T12:34:30.519Z,1.87
2022-09-22T12:37:01.862Z,1.63
2022-09-22T12:39:31.124Z,1.43
2022-09-22T12:42:00.634Z,1.50
2022-09-22T12:44:32.305Z,1.60
2022-09-22T12:47:02.787Z,1.50
2022-09-22T12:49:32.406Z,1.67
2022-09-22T12:52:01.214Z,1.50
2022-09-22T12:54:39.498Z,1.83
2022-09-22T12:57:25.077Z,1.57
2022-09-22T12:59:59.815Z,1.47
2022-09-22T13:02:29.998Z,1.53
2022-09-22T13:05:16.873Z,1.37
2022-09-22T13:07:46.021Z,1.77
2022-09-22T13:10:33.153Z,1.43
2022-09-22T13:13:21.745Z,2.03
2022-09-22T13:15:59.484Z,1.70
2022-09-22T13:18:36.132Z,1.40
2022-09-22T13:21:05.337Z,1.37
2022-09-22T13:23:33.877Z,1.67
2022-09-22T13:26:14.030Z,1.70
2022-09-22T13:28:42.602Z,1.93
2022-09-22T13:31:15.913Z,1.97
2022-09-22T13:33:44.645Z,1.80
2022-09-22T13:36:15.086Z,1.80
2022-09-22T13:38:45.240Z,1.80
2022-09-22T13:41:14.173Z,1.67
2022-09-22T13:43:44.425Z,1.50
2022-09-22T13:46:19.955Z,1.70
2022-09-22T13:48:48.658Z,1.50
2022-09-22T13:51:17.754Z,1.60
2022-09-22T13:53:49.140Z,1.30
2022-09-22T13:56:21.821Z,1.40
2022-09-22T13:58:51.753Z,1.20
2022-09-22T14:01:22.778Z,1.60
2022-09-22T14:03:51.941Z,1.43
2022-09-22T14:06:22.142Z,1.33
2022-09-22T14:08:51.610Z,1.30
2022-09-22T14:11:21.409Z,1.47
2022-09-22T14:14:00.057Z,1.47
2022-09-22T14:16:33.258Z,1.40
2022-09-22T14:19:05.979Z,1.33
2022-09-22T14:21:35.025Z,1.60
2022-09-22T14:24:03.705Z,1.30
2022-09-22T14:26:35.828Z,1.60
2022-09-22T14:29:15.260Z,1.43
2022-09-22T14:31:46.708Z,1.50
2022-09-22T14:34:18.585Z,1.43
2022-09-22T14:36:47.353Z,1.23
2022-09-22T14:39:19.172Z,1.37
2022-09-22T14:41:52.114Z,1.20
2022-09-22T14:44:26.478Z,1.20
2022-09-22T14:46:58.426Z,1.27
2022-09-22T14:49:40.785Z,1.17
2022-09-22T14:52:15.160Z,1.07
2022-09-22T14:54:45.321Z,1.00
2022-09-22T14:57:20.002Z,1.43
2022-09-22T15:00:07.455Z,1.20
2022-09-22T15:02:41.543Z,1.30
2022-09-22T15:05:11.838Z,1.40
2022-09-22T15:07:41.530Z,1.63
2022-09-22T15:10:21.454Z,1.63
2022-09-22T15:12:50.016Z,1.53
2022-09-22T15:15:19.612Z,1.53
2022-09-22T15:18:08.332Z,1.90
2022-09-22T15:20:42.631Z,1.60
2022-09-22T15:23:16.041Z,1.53
2022-09-22T15:25:44.658Z,1.50
2022-09-22T15:28:13.859Z,1.67
2022-09-22T15:30:44.773Z,1.77
2022-09-22T15:33:15.573Z,1.67
2022-09-22T15:35:44.909Z,1.60
2022-09-22T15:38:19.341Z,1.93
2022-09-22T15:40:48.333Z,1.80
2022-09-22T15:43:20.564Z,1.50
2022-09-22T15:45:50.162Z,1.70
2022-09-22T15:48:30.893Z,2.30
2022-09-22T15:51:00.231Z,1.93
2022-09-22T15:53:30.985Z,1.90
2022-09-22T15:56:00.879Z,1.70
2022-09-22T15:58:32.098Z,2.00
2022-09-22T16:01:00.566Z,2.73
2022-09-22T16:03:31.588Z,2.00
2022-09-22T16:06:02.179Z,2.13
2022-09-22T16:08:31.769Z,1.90
2022-09-22T16:11:05.394Z,2.07
2022-09-22T16:13:34.216Z,2.20
2022-09-22T16:16:03.369Z,2.00
2022-09-22T16:18:33.682Z,2.30
2022-09-22T16:21:06.084Z,2.20
2022-09-22T16:23:34.832Z,2.53
2022-09-22T16:26:03.450Z,2.30
2022-09-22T16:28:32.050Z,2.10
2022-09-22T16:31:04.037Z,2.20
2022-09-22T16:33:35.019Z,2.00
2022-09-22T16:36:04.718Z,1.90
2022-09-22T16:38:33.814Z,1.87
2022-09-22T16:41:02.954Z,2.00
2022-09-22T16:43:31.506Z,1.80
2022-09-22T16:46:17.508Z,3.33
2022-09-22T16:48:47.649Z,7.13
2022-09-22T16:51:19.078Z,3.57
2022-09-22T16:53:51.209Z,1.70
2022-09-22T16:56:19.710Z,1.60
2022-09-22T16:58:48.381Z,1.57
2022-09-22T17:01:19.877Z,1.70
2022-09-22T17:03:52.276Z,1.20
2022-09-22T17:06:24.587Z,1.53
2022-09-22T17:08:53.688Z,1.40
2022-09-22T17:11:23.420Z,1.00
2022-09-22T17:13:52.134Z,0.97
2022-09-22T17:16:22.374Z,1.00
2022-09-22T17:18:54.079Z,1.20
2022-09-22T17:21:22.969Z,0.97
2022-09-22T17:23:52.226Z,0.80
2022-09-22T17:26:21.760Z,1.20
2022-09-22T17:28:52.733Z,1.20
2022-09-22T17:31:22.504Z,1.20
2022-09-22T17:33:52.534Z,1.10
2022-09-22T17:36:24.115Z,1.13
2022-09-22T17:38:53.650Z,1.27
2022-09-22T17:41:23.222Z,1.10
2022-09-22T17:43:53.272Z,1.33
2022-09-22T17:46:22.228Z,1.30
2022-09-22T17:49:08.229Z,1.97
2022-09-22T17:51:56.884Z,1.70
2022-09-22T17:54:43.846Z,1.50
2022-09-22T17:57:14.357Z,1.33
2022-09-22T17:59:42.792Z,2.00
2022-09-22T18:02:12.388Z,1.50
2022-09-22T18:04:41.001Z,1.90
2022-09-22T18:07:11.701Z,1.70
2022-09-22T18:09:41.573Z,1.77
2022-09-22T18:12:11.510Z,1.90
2022-09-22T18:14:42.629Z,1.80
2022-09-22T18:17:12.829Z,1.80
2022-09-22T18:19:42.129Z,1.77
2022-09-22T18:22:16.815Z,2.10
2022-09-22T18:24:45.794Z,1.80
2022-09-22T18:27:14.329Z,2.23
2022-09-22T18:29:43.181Z,1.60
2022-09-22T18:32:11.619Z,1.90
2022-09-22T18:34:40.618Z,1.60
2022-09-22T18:37:13.289Z,1.60
2022-09-22T18:39:45.660Z,2.00
2022-09-22T18:42:14.953Z,1.83
2022-09-22T18:44:43.613Z,1.60
2022-09-22T18:47:16.126Z,1.70
2022-09-22T18:49:44.913Z,1.83
2022-09-22T18:52:13.430Z,1.70
2022-09-22T18:54:43.950Z,1.80
2022-09-22T18:57:13.414Z,1.93
2022-09-22T18:59:42.177Z,1.87
2022-09-22T19:02:12.227Z,1.80
2022-09-22T19:04:41.217Z,1.90
2022-09-22T19:07:28.374Z,1.73
2022-09-22T19:09:58.258Z,2.27
2022-09-22T19:12:26.731Z,1.70
2022-09-22T19:14:57.386Z,1.87
2022-09-22T19:17:25.871Z,1.83
2022-09-22T19:19:54.299Z,1.60
2022-09-22T19:22:23.370Z,1.90
2022-09-22T19:24:52.524Z,1.80
2022-09-22T19:27:22.918Z,1.50
2022-09-22T19:29:52.698Z,2.00
2022-09-22T19:32:21.142Z,1.77
2022-09-22T19:34:52.646Z,1.93
2022-09-22T19:37:21.245Z,1.60
2022-09-22T19:39:50.320Z,1.70
2022-09-22T19:42:19.057Z,1.87
2022-09-22T19:44:49.040Z,1.80
2022-09-22T19:47:17.477Z,1.70
2022-09-22T19:49:45.898Z,1.60
2022-09-22T19:52:14.472Z,1.60
2022-09-22T19:54:42.950Z,1.50
2022-09-22T19:57:11.615Z,1.80
2022-09-22T19:59:40.199Z,1.50
2022-09-22T20:02:16.885Z,1.50
2022-09-22T20:04:47.154Z,1.50
2022-09-22T20:07:15.623Z,1.30
2022-09-22T20:09:44.058Z,1.30
2022-09-22T20:12:12.866Z,1.17
2022-09-22T20:14:41.729Z,1.50
2022-09-22T20:17:10.569Z,1.50
2022-09-22T20:19:40.773Z,1.73
2022-09-22T20:22:27.850Z,1.63
2022-09-22T20:24:57.544Z,1.30
2022-09-22T20:27:26.893Z,1.40
2022-09-22T20:29:57.430Z,1.30
2022-09-22T20:32:26.742Z,1.47
2022-09-22T20:34:57.657Z,1.30
2022-09-22T20:37:26.315Z,1.60
2022-09-22T20:39:57.597Z,1.47
2022-09-22T20:42:26.448Z,1.23
2022-09-22T20:44:56.159Z,1.47
2022-09-22T20:47:27.023Z,1.40
2022-09-22T20:49:57.332Z,1.40
2022-09-22T20:52:25.962Z,1.40
2022-09-22T20:54:54.514Z,1.47
2022-09-22T20:57:22.972Z,1.20
2022-09-22T20:59:51.515Z,1.30
2022-09-22T21:02:20.073Z,3.00
2022-09-22T21:04:48.692Z,1.80
2022-09-22T21:07:18.611Z,1.80
2022-09-22T21:10:04.634Z,2.13
2022-09-22T21:12:33.279Z,1.50
2022-09-22T21:15:01.775Z,1.40
2022-09-22T21:17:31.272Z,1.63
2022-09-22T21:19:59.774Z,1.80
2022-09-22T21:22:31.021Z,1.70
2022-09-22T21:24:59.634Z,2.10
2022-09-22T21:27:29.146Z,1.40
2022-09-22T21:29:57.553Z,1.60
2022-09-22T21:32:26.247Z,1.70
2022-09-22T21:34:56.273Z,1.57
2022-09-22T21:37:25.043Z,1.90
2022-09-22T21:39:55.089Z,1.40
2022-09-22T21:42:23.666Z,1.37
2022-09-22T21:44:52.445Z,1.40
2022-09-22T21:47:21.292Z,1.70
2022-09-22T21:49:50.405Z,1.60
2022-09-22T21:52:18.831Z,1.50
2022-09-22T21:54:47.445Z,1.63
2022-09-22T21:57:17.974Z,1.47
2022-09-22T21:59:46.392Z,1.67
2022-09-22T22:02:14.949Z,1.80
2022-09-22T22:04:43.976Z,1.70
2022-09-22T22:07:12.915Z,1.80
2022-09-22T22:09:41.479Z,1.70
2022-09-22T22:12:11.973Z,1.80
2022-09-22T22:14:42.182Z,1.97
2022-09-22T22:17:11.001Z,1.97
2022-09-22T22:19:39.425Z,2.43
2022-09-22T22:22:07.875Z,1.90
2022-09-22T22:24:40.582Z,1.90
2022-09-22T22:27:10.123Z,2.10
2022-09-22T22:29:39.633Z,1.90
2022-09-22T22:32:10.580Z,1.60
2022-09-22T22:34:39.465Z,1.70
2022-09-22T22:37:10.123Z,2.00
2022-09-22T22:39:38.764Z,1.80
2022-09-22T22:42:07.747Z,2.20
2022-09-22T22:44:36.354Z,1.90
2022-09-22T22:47:05.365Z,2.67
2022-09-22T22:49:35.358Z,1.57
2022-09-22T22:52:04.039Z,1.90
2022-09-22T22:54:32.597Z,1.80
2022-09-22T22:57:01.154Z,1.60
2022-09-22T22:59:29.582Z,1.97
2022-09-22T23:01:58.138Z,1.70
2022-09-22T23:04:27.079Z,1.87
2022-09-22T23:06:56.880Z,1.77
2022-09-22T23:09:25.518Z,1.77
2022-09-22T23:11:54.130Z,1.87
2022-09-22T23:14:22.562Z,1.80
2022-09-22T23:16:52.445Z,1.90
2022-09-22T23:19:20.933Z,1.90
2022-09-22T23:21:49.437Z,1.90
2022-09-22T23:24:19.610Z,1.73
2022-09-22T23:26:48.411Z,1.90
2022-09-22T23:29:17.016Z,1.87
2022-09-22T23:31:46.063Z,1.80
2022-09-22T23:34:14.586Z,2.77
2022-09-22T23:36:43.073Z,2.00
2022-09-22T23:39:13.189Z,1.70
2022-09-22T23:41:43.375Z,2.07
2022-09-22T23:44:12.416Z,1.97
2022-09-22T23:46:41.106Z,1.87
2022-09-22T23:49:09.742Z,1.80
2022-09-22T23:51:38.173Z,1.97
2022-09-22T23:54:07.005Z,1.80
2022-09-22T23:56:35.810Z,1.97
2022-09-22T23:59:05.768Z,1.93
